sensor_id;sensor_type;location;lat;lon;timestamp;P1;durP1;ratioP1;P2;durP2;ratioP2
13202;SDS011;6666;51.626;7.530;2022-12-20T00:01:29;3.30;;;1.70;;
13202;SDS011;6666;51.626;7.530;2022-12-20T00:04:01;2.60;;;1.90;;
13202;SDS011;6666;51.626;7.530;2022-12-20T00:06:32;2.28;;;1.80;;
13202;SDS011;6666;51.626;7.530;2022-12-20T00:09:02;2.25;;;1.52;;
13202;SDS011;6666;51.626;7.530;2022-12-20T00:11:33;12.98;;;2.00;;
13202;SDS011;6666;51.626;7.530;2022-12-20T00:14:01;4.00;;;1.50;;
13202;SDS011;6666;51.626;7.530;2022-12-20T00:16:29;2.38;;;1.40;;
13202;SDS011;6666;51.626;7.530;2022-12-20T00:18:58;2.20;;;1.60;;
13202;SDS011;6666;51.626;7.530;2022-12-20T00:21:29;4.95;;;1.60;;
13202;SDS011;6666;51.626;7.530;2022-12-20T00:23:57;2.97;;;1.48;;
13202;SDS011;6666;51.626;7.530;2022-12-20T00:26:27;3.30;;;1.50;;
13202;SDS011;6666;51.626;7.530;2022-12-20T00:28:57;2.20;;;1.50;;
13202;SDS011;6666;51.626;7.530;2022-12-20T00:31:26;3.50;;;1.60;;
13202;SDS011;6666;51.626;7.530;2022-12-20T00:33:56;3.72;;;1.70;;
13202;SDS011;6666;51.626;7.530;2022-12-20T00:36:27;1.85;;;1.30;;
13202;SDS011;6666;51.626;7.530;2022-12-20T00:38:58;2.10;;;1.30;;
13202;SDS011;6666;51.626;7.530;2022-12-20T00:41:28;2.95;;;1.40;;
13202;SDS011;6666;51.626;7.530;2022-12-20T00:43:58;4.43;;;1.48;;
13202;SDS011;6666;51.626;7.530;2022-12-20T00:46:26;1.63;;;1.30;;
13202;SDS011;6666;51.626;7.530;2022-12-20T00:48:54;1.83;;;1.33;;
13202;SDS011;6666;51.626;7.530;2022-12-20T00:51:24;2.15;;;1.50;;
13202;SDS011;6666;51.626;7.530;2022-12-20T00:53:54;1.60;;;1.20;;
13202;SDS011;6666;51.626;7.530;2022-12-20T00:56:23;1.70;;;1.40;;
13202;SDS011;6666;51.626;7.530;2022-12-20T00:58:54;4.65;;;1.42;;
13202;SDS011;6666;51.626;7.530;2022-12-20T01:01:26;3.10;;;1.70;;
13202;SDS011;6666;51.626;7.530;2022-12-20T01:03:57;1.70;;;1.40;;
13202;SDS011;6666;51.626;7.530;2022-12-20T01:06:26;6.63;;;1.80;;
13202;SDS011;6666;51.626;7.530;2022-12-20T01:08:57;1.33;;;1.20;;
13202;SDS011;6666;51.626;7.530;2022-12-20T01:11:28;2.10;;;1.30;;
13202;SDS011;6666;51.626;7.530;2022-12-20T01:13:59;3.47;;;1.30;;
13202;SDS011;6666;51.626;7.530;2022-12-20T01:16:30;4.70;;;1.40;;
13202;SDS011;6666;51.626;7.530;2022-12-20T01:19:00;3.80;;;1.37;;
13202;SDS011;6666;51.626;7.530;2022-12-20T01:21:29;4.38;;;1.50;;
13202;SDS011;6666;51.626;7.530;2022-12-20T01:23:59;1.40;;;1.30;;
13202;SDS011;6666;51.626;7.530;2022-12-20T01:26:27;3.25;;;1.20;;
13202;SDS011;6666;51.626;7.530;2022-12-20T01:28:57;2.22;;;1.25;;
13202;SDS011;6666;51.626;7.530;2022-12-20T01:31:26;3.03;;;1.30;;
13202;SDS011;6666;51.626;7.530;2022-12-20T01:33:56;2.35;;;1.40;;
13202;SDS011;6666;51.626;7.530;2022-12-20T01:36:26;1.58;;;1.23;;
13202;SDS011;6666;51.626;7.530;2022-12-20T01:38:56;1.45;;;1.20;;
13202;SDS011;6666;51.626;7.530;2022-12-20T01:41:26;2.80;;;1.40;;
13202;SDS011;6666;51.626;7.530;2022-12-20T01:43:56;2.47;;;1.17;;
13202;SDS011;6666;51.626;7.530;2022-12-20T01:46:27;2.40;;;1.30;;
13202;SDS011;6666;51.626;7.530;2022-12-20T01:48:58;2.40;;;1.40;;
13202;SDS011;6666;51.626;7.530;2022-12-20T01:51:29;2.72;;;1.65;;
13202;SDS011;6666;51.626;7.530;2022-12-20T01:54:02;3.47;;;1.40;;
13202;SDS011;6666;51.626;7.530;2022-12-20T01:56:35;1.90;;;1.30;;
13202;SDS011;6666;51.626;7.530;2022-12-20T01:59:06;5.40;;;1.70;;
13202;SDS011;6666;51.626;7.530;2022-12-20T02:01:35;1.33;;;1.20;;
13202;SDS011;6666;51.626;7.530;2022-12-20T02:04:04;2.88;;;1.45;;
13202;SDS011;6666;51.626;7.530;2022-12-20T02:06:32;2.05;;;1.42;;
13202;SDS011;6666;51.626;7.530;2022-12-20T02:09:01;2.03;;;1.20;;
13202;SDS011;6666;51.626;7.530;2022-12-20T02:14:42;3.40;;;1.38;;
13202;SDS011;6666;51.626;7.530;2022-12-20T02:17:24;1.70;;;1.30;;
13202;SDS011;6666;51.626;7.530;2022-12-20T02:23:14;2.40;;;1.30;;
13202;SDS011;6666;51.626;7.530;2022-12-20T02:25:56;3.95;;;1.40;;
13202;SDS011;6666;51.626;7.530;2022-12-20T02:28:52;2.50;;;1.40;;
13202;SDS011;6666;51.626;7.530;2022-12-20T02:31:32;2.08;;;1.30;;
13202;SDS011;6666;51.626;7.530;2022-12-20T02:34:06;2.13;;;1.40;;
13202;SDS011;6666;51.626;7.530;2022-12-20T02:36:37;7.95;;;1.50;;
13202;SDS011;6666;51.626;7.530;2022-12-20T02:39:06;2.10;;;1.40;;
13202;SDS011;6666;51.626;7.530;2022-12-20T02:41:36;4.22;;;1.60;;
13202;SDS011;6666;51.626;7.530;2022-12-20T02:44:09;3.00;;;1.52;;
13202;SDS011;6666;51.626;7.530;2022-12-20T02:47:04;2.60;;;1.40;;
13202;SDS011;6666;51.626;7.530;2022-12-20T02:49:38;2.10;;;1.40;;
13202;SDS011;6666;51.626;7.530;2022-12-20T02:52:08;2.20;;;1.67;;
13202;SDS011;6666;51.626;7.530;2022-12-20T02:54:39;1.58;;;1.40;;
13202;SDS011;6666;51.626;7.530;2022-12-20T02:57:08;3.53;;;2.10;;
13202;SDS011;6666;51.626;7.530;2022-12-20T02:59:44;2.35;;;1.50;;
13202;SDS011;6666;51.626;7.530;2022-12-20T03:02:23;3.00;;;1.50;;
13202;SDS011;6666;51.626;7.530;2022-12-20T03:04:53;2.60;;;1.63;;
13202;SDS011;6666;51.626;7.530;2022-12-20T03:07:24;2.13;;;1.42;;
13202;SDS011;6666;51.626;7.530;2022-12-20T03:09:56;1.60;;;1.50;;
13202;SDS011;6666;51.626;7.530;2022-12-20T03:12:24;3.03;;;1.30;;
13202;SDS011;6666;51.626;7.530;2022-12-20T03:14:52;1.85;;;1.60;;
13202;SDS011;6666;51.626;7.530;2022-12-20T03:17:21;2.30;;;1.60;;
13202;SDS011;6666;51.626;7.530;2022-12-20T03:19:50;2.35;;;1.58;;
13202;SDS011;6666;51.626;7.530;2022-12-20T03:22:18;3.73;;;1.60;;
13202;SDS011;6666;51.626;7.530;2022-12-20T03:24:47;3.20;;;1.60;;
13202;SDS011;6666;51.626;7.530;2022-12-20T03:27:16;2.42;;;1.50;;
13202;SDS011;6666;51.626;7.530;2022-12-20T03:29:44;3.90;;;1.80;;
13202;SDS011;6666;51.626;7.530;2022-12-20T03:32:12;1.80;;;1.35;;
13202;SDS011;6666;51.626;7.530;2022-12-20T03:34:42;1.70;;;1.50;;
13202;SDS011;6666;51.626;7.530;2022-12-20T03:37:13;2.95;;;1.45;;
13202;SDS011;6666;51.626;7.530;2022-12-20T03:39:41;2.70;;;1.70;;
13202;SDS011;6666;51.626;7.530;2022-12-20T03:42:10;5.38;;;1.70;;
13202;SDS011;6666;51.626;7.530;2022-12-20T03:44:39;2.50;;;1.70;;
13202;SDS011;6666;51.626;7.530;2022-12-20T03:47:08;6.35;;;1.80;;
13202;SDS011;6666;51.626;7.530;2022-12-20T03:49:36;2.20;;;1.60;;
13202;SDS011;6666;51.626;7.530;2022-12-20T03:52:05;2.47;;;1.52;;
13202;SDS011;6666;51.626;7.530;2022-12-20T03:54:34;1.60;;;1.40;;
13202;SDS011;6666;51.626;7.530;2022-12-20T03:57:08;4.38;;;1.80;;
13202;SDS011;6666;51.626;7.530;2022-12-20T03:59:37;2.20;;;1.58;;
13202;SDS011;6666;51.626;7.530;2022-12-20T04:02:08;2.15;;;1.52;;
13202;SDS011;6666;51.626;7.530;2022-12-20T04:04:36;3.47;;;1.40;;
13202;SDS011;6666;51.626;7.530;2022-12-20T04:07:05;4.60;;;1.88;;
13202;SDS011;6666;51.626;7.530;2022-12-20T04:09:37;2.70;;;1.70;;
13202;SDS011;6666;51.626;7.530;2022-12-20T04:12:11;4.32;;;1.70;;
13202;SDS011;6666;51.626;7.530;2022-12-20T04:14:39;2.40;;;1.80;;
13202;SDS011;6666;51.626;7.530;2022-12-20T04:17:09;3.47;;;1.93;;
13202;SDS011;6666;51.626;7.530;2022-12-20T04:19:38;4.10;;;2.03;;
13202;SDS011;6666;51.626;7.530;2022-12-20T04:22:07;2.50;;;1.80;;
13202;SDS011;6666;51.626;7.530;2022-12-20T04:24:52;2.58;;;1.90;;
13202;SDS011;6666;51.626;7.530;2022-12-20T04:27:27;5.60;;;1.98;;
13202;SDS011;6666;51.626;7.530;2022-12-20T04:29:56;2.77;;;1.67;;
13202;SDS011;6666;51.626;7.530;2022-12-20T04:32:25;2.00;;;1.80;;
13202;SDS011;6666;51.626;7.530;2022-12-20T04:34:53;3.45;;;2.00;;
13202;SDS011;6666;51.626;7.530;2022-12-20T04:37:21;4.90;;;1.70;;
13202;SDS011;6666;51.626;7.530;2022-12-20T04:39:53;2.90;;;1.80;;
13202;SDS011;6666;51.626;7.530;2022-12-20T04:42:25;3.30;;;1.85;;
13202;SDS011;6666;51.626;7.530;2022-12-20T04:44:54;4.30;;;1.80;;
13202;SDS011;6666;51.626;7.530;2022-12-20T04:47:26;3.00;;;2.08;;
13202;SDS011;6666;51.626;7.530;2022-12-20T04:49:54;2.40;;;1.80;;
13202;SDS011;6666;51.626;7.530;2022-12-20T04:52:22;2.05;;;1.80;;
13202;SDS011;6666;51.626;7.530;2022-12-20T04:55:15;2.55;;;1.73;;
13202;SDS011;6666;51.626;7.530;2022-12-20T04:57:43;4.10;;;1.90;;
13202;SDS011;6666;51.626;7.530;2022-12-20T05:00:13;2.40;;;1.70;;
13202;SDS011;6666;51.626;7.530;2022-12-20T05:02:47;2.58;;;1.55;;
13202;SDS011;6666;51.626;7.530;2022-12-20T05:08:49;3.95;;;1.90;;
13202;SDS011;6666;51.626;7.530;2022-12-20T05:11:19;2.38;;;1.80;;
13202;SDS011;6666;51.626;7.530;2022-12-20T05:13:48;2.60;;;1.80;;
13202;SDS011;6666;51.626;7.530;2022-12-20T05:16:18;3.75;;;1.80;;
13202;SDS011;6666;51.626;7.530;2022-12-20T05:18:47;2.53;;;1.70;;
13202;SDS011;6666;51.626;7.530;2022-12-20T05:21:17;3.35;;;2.15;;
13202;SDS011;6666;51.626;7.530;2022-12-20T05:24:04;3.60;;;1.90;;
13202;SDS011;6666;51.626;7.530;2022-12-20T05:27:15;2.83;;;1.67;;
13202;SDS011;6666;51.626;7.530;2022-12-20T05:29:43;2.10;;;1.60;;
13202;SDS011;6666;51.626;7.530;2022-12-20T05:32:11;3.83;;;1.65;;
13202;SDS011;6666;51.626;7.530;2022-12-20T05:34:41;2.90;;;1.80;;
13202;SDS011;6666;51.626;7.530;2022-12-20T05:37:09;3.42;;;2.10;;
13202;SDS011;6666;51.626;7.530;2022-12-20T05:39:39;3.20;;;1.83;;
13202;SDS011;6666;51.626;7.530;2022-12-20T05:42:17;4.88;;;1.80;;
13202;SDS011;6666;51.626;7.530;2022-12-20T05:44:48;4.30;;;1.90;;
13202;SDS011;6666;51.626;7.530;2022-12-20T05:47:18;2.20;;;1.73;;
13202;SDS011;6666;51.626;7.530;2022-12-20T05:49:52;4.40;;;2.20;;
13202;SDS011;6666;51.626;7.530;2022-12-20T05:52:21;2.97;;;1.95;;
13202;SDS011;6666;51.626;7.530;2022-12-20T05:54:49;4.15;;;2.05;;
13202;SDS011;6666;51.626;7.530;2022-12-20T05:57:21;4.93;;;1.80;;
13202;SDS011;6666;51.626;7.530;2022-12-20T05:59:50;2.80;;;1.92;;
13202;SDS011;6666;51.626;7.530;2022-12-20T06:02:23;3.30;;;2.10;;
13202;SDS011;6666;51.626;7.530;2022-12-20T06:04:59;3.03;;;1.95;;
13202;SDS011;6666;51.626;7.530;2022-12-20T06:07:29;2.25;;;2.05;;
13202;SDS011;6666;51.626;7.530;2022-12-20T06:09:58;2.95;;;1.83;;
13202;SDS011;6666;51.626;7.530;2022-12-20T06:12:42;2.00;;;1.80;;
13202;SDS011;6666;51.626;7.530;2022-12-20T06:15:10;4.00;;;2.75;;
13202;SDS011;6666;51.626;7.530;2022-12-20T06:17:41;2.20;;;1.70;;
13202;SDS011;6666;51.626;7.530;2022-12-20T06:20:10;3.17;;;1.80;;
13202;SDS011;6666;51.626;7.530;2022-12-20T06:22:42;4.60;;;2.00;;
13202;SDS011;6666;51.626;7.530;2022-12-20T06:25:12;4.47;;;1.90;;
13202;SDS011;6666;51.626;7.530;2022-12-20T06:27:42;2.40;;;2.00;;
13202;SDS011;6666;51.626;7.530;2022-12-20T06:30:14;2.80;;;1.90;;
13202;SDS011;6666;51.626;7.530;2022-12-20T06:33:02;3.28;;;1.50;;
13202;SDS011;6666;51.626;7.530;2022-12-20T06:35:30;3.50;;;1.90;;
13202;SDS011;6666;51.626;7.530;2022-12-20T06:37:59;3.92;;;1.80;;
13202;SDS011;6666;51.626;7.530;2022-12-20T06:40:30;8.00;;;1.90;;
13202;SDS011;6666;51.626;7.530;2022-12-20T06:43:01;4.95;;;2.53;;
13202;SDS011;6666;51.626;7.530;2022-12-20T06:45:29;2.83;;;1.90;;
13202;SDS011;6666;51.626;7.530;2022-12-20T06:48:07;2.97;;;1.87;;
13202;SDS011;6666;51.626;7.530;2022-12-20T06:50:36;2.50;;;1.77;;
13202;SDS011;6666;51.626;7.530;2022-12-20T06:53:05;3.40;;;2.05;;
13202;SDS011;6666;51.626;7.530;2022-12-20T06:55:34;3.97;;;2.20;;
13202;SDS011;6666;51.626;7.530;2022-12-20T06:58:03;2.93;;;2.17;;
13202;SDS011;6666;51.626;7.530;2022-12-20T07:00:32;2.92;;;2.30;;
13202;SDS011;6666;51.626;7.530;2022-12-20T07:03:00;2.65;;;1.80;;
13202;SDS011;6666;51.626;7.530;2022-12-20T07:05:28;3.03;;;2.03;;
13202;SDS011;6666;51.626;7.530;2022-12-20T07:07:57;3.92;;;2.08;;
13202;SDS011;6666;51.626;7.530;2022-12-20T07:10:25;7.60;;;1.70;;
13202;SDS011;6666;51.626;7.530;2022-12-20T07:12:53;2.42;;;1.90;;
13202;SDS011;6666;51.626;7.530;2022-12-20T07:15:23;2.50;;;2.00;;
13202;SDS011;6666;51.626;7.530;2022-12-20T07:17:51;8.48;;;2.30;;
13202;SDS011;6666;51.626;7.530;2022-12-20T07:20:19;3.20;;;2.20;;
13202;SDS011;6666;51.626;7.530;2022-12-20T07:22:47;4.18;;;2.10;;
13202;SDS011;6666;51.626;7.530;2022-12-20T07:25:16;2.65;;;2.00;;
13202;SDS011;6666;51.626;7.530;2022-12-20T07:27:45;4.78;;;2.17;;
13202;SDS011;6666;51.626;7.530;2022-12-20T07:30:15;3.27;;;1.87;;
13202;SDS011;6666;51.626;7.530;2022-12-20T07:32:45;2.15;;;1.88;;
13202;SDS011;6666;51.626;7.530;2022-12-20T07:35:14;3.30;;;2.00;;
13202;SDS011;6666;51.626;7.530;2022-12-20T07:37:43;4.10;;;1.83;;
13202;SDS011;6666;51.626;7.530;2022-12-20T07:40:12;4.03;;;2.05;;
13202;SDS011;6666;51.626;7.530;2022-12-20T07:42:41;3.63;;;1.90;;
13202;SDS011;6666;51.626;7.530;2022-12-20T07:45:14;2.88;;;1.80;;
13202;SDS011;6666;51.626;7.530;2022-12-20T07:47:42;7.00;;;1.98;;
13202;SDS011;6666;51.626;7.530;2022-12-20T07:50:12;2.72;;;2.00;;
13202;SDS011;6666;51.626;7.530;2022-12-20T07:52:41;4.38;;;2.67;;
13202;SDS011;6666;51.626;7.530;2022-12-20T07:55:13;6.70;;;2.20;;
13202;SDS011;6666;51.626;7.530;2022-12-20T07:57:42;7.77;;;4.40;;
13202;SDS011;6666;51.626;7.530;2022-12-20T08:00:14;6.67;;;2.70;;
13202;SDS011;6666;51.626;7.530;2022-12-20T08:02:46;5.25;;;3.08;;
13202;SDS011;6666;51.626;7.530;2022-12-20T08:05:21;4.60;;;2.50;;
13202;SDS011;6666;51.626;7.530;2022-12-20T08:07:49;7.13;;;2.50;;
13202;SDS011;6666;51.626;7.530;2022-12-20T08:10:25;4.78;;;2.90;;
13202;SDS011;6666;51.626;7.530;2022-12-20T08:12:54;5.85;;;2.70;;
13202;SDS011;6666;51.626;7.530;2022-12-20T08:15:23;7.10;;;2.90;;
13202;SDS011;6666;51.626;7.530;2022-12-20T08:17:51;4.03;;;2.72;;
13202;SDS011;6666;51.626;7.530;2022-12-20T08:20:21;7.70;;;2.45;;
13202;SDS011;6666;51.626;7.530;2022-12-20T08:22:49;3.30;;;2.10;;
13202;SDS011;6666;51.626;7.530;2022-12-20T08:25:17;2.90;;;1.90;;
13202;SDS011;6666;51.626;7.530;2022-12-20T08:27:46;2.60;;;2.20;;
13202;SDS011;6666;51.626;7.530;2022-12-20T08:30:15;1.60;;;1.30;;
13202;SDS011;6666;51.626;7.530;2022-12-20T08:32:44;3.03;;;1.40;;
13202;SDS011;6666;51.626;7.530;2022-12-20T08:35:12;3.50;;;2.20;;
13202;SDS011;6666;51.626;7.530;2022-12-20T08:37:42;2.15;;;1.50;;
13202;SDS011;6666;51.626;7.530;2022-12-20T08:40:10;2.17;;;1.50;;
13202;SDS011;6666;51.626;7.530;2022-12-20T08:42:39;3.83;;;1.70;;
13202;SDS011;6666;51.626;7.530;2022-12-20T08:45:07;2.50;;;1.40;;
13202;SDS011;6666;51.626;7.530;2022-12-20T08:47:36;3.50;;;1.50;;
13202;SDS011;6666;51.626;7.530;2022-12-20T08:50:04;2.90;;;1.50;;
13202;SDS011;6666;51.626;7.530;2022-12-20T08:52:33;3.20;;;1.40;;
13202;SDS011;6666;51.626;7.530;2022-12-20T08:55:03;2.30;;;1.50;;
13202;SDS011;6666;51.626;7.530;2022-12-20T08:57:32;2.92;;;1.90;;
13202;SDS011;6666;51.626;7.530;2022-12-20T09:00:00;1.80;;;1.40;;
13202;SDS011;6666;51.626;7.530;2022-12-20T09:02:29;5.57;;;1.90;;
13202;SDS011;6666;51.626;7.530;2022-12-20T09:04:58;2.80;;;1.50;;
13202;SDS011;6666;51.626;7.530;2022-12-20T09:07:26;4.60;;;1.70;;
13202;SDS011;6666;51.626;7.530;2022-12-20T09:09:55;2.13;;;1.40;;
13202;SDS011;6666;51.626;7.530;2022-12-20T09:12:24;2.58;;;1.70;;
13202;SDS011;6666;51.626;7.530;2022-12-20T09:14:52;3.78;;;1.50;;
13202;SDS011;6666;51.626;7.530;2022-12-20T09:17:20;2.40;;;1.50;;
13202;SDS011;6666;51.626;7.530;2022-12-20T09:19:49;2.20;;;1.40;;
13202;SDS011;6666;51.626;7.530;2022-12-20T09:22:17;4.18;;;1.50;;
13202;SDS011;6666;51.626;7.530;2022-12-20T09:24:45;1.60;;;1.30;;
13202;SDS011;6666;51.626;7.530;2022-12-20T09:27:14;2.92;;;1.42;;
13202;SDS011;6666;51.626;7.530;2022-12-20T09:29:44;3.40;;;1.60;;
13202;SDS011;6666;51.626;7.530;2022-12-20T09:32:12;2.90;;;1.73;;
13202;SDS011;6666;51.626;7.530;2022-12-20T09:34:40;3.63;;;1.40;;
13202;SDS011;6666;51.626;7.530;2022-12-20T09:37:08;1.40;;;1.30;;
13202;SDS011;6666;51.626;7.530;2022-12-20T09:39:37;2.60;;;1.57;;
13202;SDS011;6666;51.626;7.530;2022-12-20T09:42:06;2.30;;;1.33;;
13202;SDS011;6666;51.626;7.530;2022-12-20T09:44:37;2.45;;;1.17;;
13202;SDS011;6666;51.626;7.530;2022-12-20T09:47:08;2.65;;;1.15;;
13202;SDS011;6666;51.626;7.530;2022-12-20T09:49:41;4.15;;;1.20;;
13202;SDS011;6666;51.626;7.530;2022-12-20T09:52:17;5.80;;;1.30;;
13202;SDS011;6666;51.626;7.530;2022-12-20T09:54:58;3.10;;;1.58;;
13202;SDS011;6666;51.626;7.530;2022-12-20T09:57:39;2.67;;;1.30;;
13202;SDS011;6666;51.626;7.530;2022-12-20T10:00:19;2.97;;;1.30;;
13202;SDS011;6666;51.626;7.530;2022-12-20T10:02:49;2.63;;;1.50;;
13202;SDS011;6666;51.626;7.530;2022-12-20T10:05:37;2.17;;;1.40;;
13202;SDS011;6666;51.626;7.530;2022-12-20T10:08:15;10.40;;;6.30;;
13202;SDS011;6666;51.626;7.530;2022-12-20T10:11:01;2.00;;;1.50;;
13202;SDS011;6666;51.626;7.530;2022-12-20T10:13:49;3.90;;;2.00;;
13202;SDS011;6666;51.626;7.530;2022-12-20T10:16:31;2.30;;;1.50;;
13202;SDS011;6666;51.626;7.530;2022-12-20T10:21:57;3.92;;;1.60;;
13202;SDS011;6666;51.626;7.530;2022-12-20T10:24:32;6.32;;;1.60;;
13202;SDS011;6666;51.626;7.530;2022-12-20T10:27:01;7.18;;;1.70;;
13202;SDS011;6666;51.626;7.530;2022-12-20T10:29:38;3.25;;;1.60;;
13202;SDS011;6666;51.626;7.530;2022-12-20T10:32:09;5.05;;;1.35;;
13202;SDS011;6666;51.626;7.530;2022-12-20T10:34:43;3.08;;;1.50;;
13202;SDS011;6666;51.626;7.530;2022-12-20T10:37:18;2.50;;;1.30;;
13202;SDS011;6666;51.626;7.530;2022-12-20T10:39:47;2.50;;;1.48;;
13202;SDS011;6666;51.626;7.530;2022-12-20T10:42:31;2.50;;;1.10;;
13202;SDS011;6666;51.626;7.530;2022-12-20T10:45:04;2.30;;;1.60;;
13202;SDS011;6666;51.626;7.530;2022-12-20T10:48:02;3.63;;;1.10;;
13202;SDS011;6666;51.626;7.530;2022-12-20T10:50:33;1.45;;;1.35;;
13202;SDS011;6666;51.626;7.530;2022-12-20T10:53:17;3.22;;;1.50;;
13202;SDS011;6666;51.626;7.530;2022-12-20T10:55:50;3.63;;;1.30;;
13202;SDS011;6666;51.626;7.530;2022-12-20T10:58:21;3.60;;;1.50;;
13202;SDS011;6666;51.626;7.530;2022-12-20T11:01:04;2.45;;;1.40;;
13202;SDS011;6666;51.626;7.530;2022-12-20T11:03:52;2.05;;;1.30;;
13202;SDS011;6666;51.626;7.530;2022-12-20T11:06:25;1.60;;;1.50;;
13202;SDS011;6666;51.626;7.530;2022-12-20T11:09:11;3.05;;;1.45;;
13202;SDS011;6666;51.626;7.530;2022-12-20T11:14:39;3.70;;;1.58;;
13202;SDS011;6666;51.626;7.530;2022-12-20T11:17:15;1.98;;;1.30;;
13202;SDS011;6666;51.626;7.530;2022-12-20T11:19:54;3.55;;;1.70;;
13202;SDS011;6666;51.626;7.530;2022-12-20T11:22:33;2.78;;;1.40;;
13202;SDS011;6666;51.626;7.530;2022-12-20T11:25:16;3.15;;;1.50;;
13202;SDS011;6666;51.626;7.530;2022-12-20T11:27:58;1.73;;;1.30;;
13202;SDS011;6666;51.626;7.530;2022-12-20T11:30:46;2.05;;;1.50;;
13202;SDS011;6666;51.626;7.530;2022-12-20T11:33:35;2.05;;;1.40;;
13202;SDS011;6666;51.626;7.530;2022-12-20T11:36:13;2.53;;;1.30;;
13202;SDS011;6666;51.626;7.530;2022-12-20T11:38:51;2.42;;;0.95;;
13202;SDS011;6666;51.626;7.530;2022-12-20T11:41:29;1.42;;;1.20;;
13202;SDS011;6666;51.626;7.530;2022-12-20T11:44:06;3.40;;;1.30;;
13202;SDS011;6666;51.626;7.530;2022-12-20T11:46:56;3.95;;;1.08;;
13202;SDS011;6666;51.626;7.530;2022-12-20T11:49:52;3.00;;;1.20;;
13202;SDS011;6666;51.626;7.530;2022-12-20T11:52:38;2.50;;;1.30;;
13202;SDS011;6666;51.626;7.530;2022-12-20T11:55:16;2.00;;;1.30;;
13202;SDS011;6666;51.626;7.530;2022-12-20T11:57:49;3.42;;;1.45;;
13202;SDS011;6666;51.626;7.530;2022-12-20T12:00:48;2.70;;;1.60;;
13202;SDS011;6666;51.626;7.530;2022-12-20T12:03:22;2.50;;;1.10;;
13202;SDS011;6666;51.626;7.530;2022-12-20T12:05:57;5.55;;;1.60;;
13202;SDS011;6666;51.626;7.530;2022-12-20T12:08:31;2.30;;;1.40;;
13202;SDS011;6666;51.626;7.530;2022-12-20T12:11:13;4.40;;;1.40;;
13202;SDS011;6666;51.626;7.530;2022-12-20T12:14:05;2.33;;;1.40;;
13202;SDS011;6666;51.626;7.530;2022-12-20T12:16:41;2.40;;;1.30;;
13202;SDS011;6666;51.626;7.530;2022-12-20T12:19:14;1.45;;;1.10;;
13202;SDS011;6666;51.626;7.530;2022-12-20T12:21:43;1.90;;;1.20;;
13202;SDS011;6666;51.626;7.530;2022-12-20T12:24:18;3.60;;;1.60;;
13202;SDS011;6666;51.626;7.530;2022-12-20T12:26:52;4.10;;;1.40;;
13202;SDS011;6666;51.626;7.530;2022-12-20T12:29:20;2.00;;;1.20;;
13202;SDS011;6666;51.626;7.530;2022-12-20T12:31:50;4.00;;;1.80;;
13202;SDS011;6666;51.626;7.530;2022-12-20T12:34:31;6.47;;;1.20;;
13202;SDS011;6666;51.626;7.530;2022-12-20T12:40:15;1.90;;;1.30;;
13202;SDS011;6666;51.626;7.530;2022-12-20T12:46:11;2.40;;;1.30;;
13202;SDS011;6666;51.626;7.530;2022-12-20T12:48:44;3.60;;;1.50;;
13202;SDS011;6666;51.626;7.530;2022-12-20T12:51:20;3.95;;;1.60;;
13202;SDS011;6666;51.626;7.530;2022-12-20T12:53:53;3.20;;;1.30;;
13202;SDS011;6666;51.626;7.530;2022-12-20T12:56:35;2.50;;;1.50;;
13202;SDS011;6666;51.626;7.530;2022-12-20T12:59:23;2.08;;;1.60;;
13202;SDS011;6666;51.626;7.530;2022-12-20T13:02:23;1.70;;;1.30;;
13202;SDS011;6666;51.626;7.530;2022-12-20T13:07:57;3.47;;;1.30;;
13202;SDS011;6666;51.626;7.530;2022-12-20T13:13:24;5.50;;;1.52;;
13202;SDS011;6666;51.626;7.530;2022-12-20T13:16:08;2.70;;;1.33;;
13202;SDS011;6666;51.626;7.530;2022-12-20T13:21:31;3.28;;;1.67;;
13202;SDS011;6666;51.626;7.530;2022-12-20T13:35:58;7.57;;;2.20;;
13202;SDS011;6666;51.626;7.530;2022-12-20T13:38:40;2.83;;;2.25;;
13202;SDS011;6666;51.626;7.530;2022-12-20T13:41:20;2.72;;;1.60;;
13202;SDS011;6666;51.626;7.530;2022-12-20T13:44:23;3.35;;;2.00;;
13202;SDS011;6666;51.626;7.530;2022-12-20T13:49:59;5.15;;;1.90;;
13202;SDS011;6666;51.626;7.530;2022-12-20T13:52:31;4.45;;;1.80;;
13202;SDS011;6666;51.626;7.530;2022-12-20T13:55:03;6.68;;;2.13;;
13202;SDS011;6666;51.626;7.530;2022-12-20T13:57:42;4.15;;;1.80;;
13202;SDS011;6666;51.626;7.530;2022-12-20T14:00:14;2.75;;;1.50;;
13202;SDS011;6666;51.626;7.530;2022-12-20T14:02:44;3.90;;;2.10;;
13202;SDS011;6666;51.626;7.530;2022-12-20T14:05:14;4.63;;;1.90;;
13202;SDS011;6666;51.626;7.530;2022-12-20T14:07:50;3.53;;;1.90;;
13202;SDS011;6666;51.626;7.530;2022-12-20T14:10:23;2.80;;;1.80;;
13202;SDS011;6666;51.626;7.530;2022-12-20T14:12:53;5.30;;;2.10;;
13202;SDS011;6666;51.626;7.530;2022-12-20T14:15:23;3.63;;;2.40;;
13202;SDS011;6666;51.626;7.530;2022-12-20T14:17:54;5.35;;;2.60;;
13202;SDS011;6666;51.626;7.530;2022-12-20T14:20:23;3.88;;;2.30;;
13202;SDS011;6666;51.626;7.530;2022-12-20T14:22:59;3.63;;;2.25;;
13202;SDS011;6666;51.626;7.530;2022-12-20T14:25:40;3.80;;;1.80;;
13202;SDS011;6666;51.626;7.530;2022-12-20T14:28:23;3.70;;;1.80;;
13202;SDS011;6666;51.626;7.530;2022-12-20T14:30:58;3.75;;;1.80;;
13202;SDS011;6666;51.626;7.530;2022-12-20T14:33:29;3.13;;;1.80;;
13202;SDS011;6666;51.626;7.530;2022-12-20T14:36:16;3.20;;;1.83;;
13202;SDS011;6666;51.626;7.530;2022-12-20T14:38:48;7.93;;;1.70;;
13202;SDS011;6666;51.626;7.530;2022-12-20T14:41:31;4.20;;;1.50;;
13202;SDS011;6666;51.626;7.530;2022-12-20T14:44:03;4.75;;;1.63;;
13202;SDS011;6666;51.626;7.530;2022-12-20T14:46:46;3.15;;;1.80;;
13202;SDS011;6666;51.626;7.530;2022-12-20T14:49:17;4.78;;;2.60;;
13202;SDS011;6666;51.626;7.530;2022-12-20T14:51:52;4.90;;;2.10;;
13202;SDS011;6666;51.626;7.530;2022-12-20T14:54:34;4.00;;;2.30;;
13202;SDS011;6666;51.626;7.530;2022-12-20T14:57:31;5.18;;;2.80;;
13202;SDS011;6666;51.626;7.530;2022-12-20T15:00:09;7.60;;;3.58;;
13202;SDS011;6666;51.626;7.530;2022-12-20T15:02:45;7.43;;;3.90;;
13202;SDS011;6666;51.626;7.530;2022-12-20T15:05:36;6.93;;;3.50;;
13202;SDS011;6666;51.626;7.530;2022-12-20T15:08:11;5.75;;;3.50;;
13202;SDS011;6666;51.626;7.530;2022-12-20T15:10:46;6.20;;;3.10;;
13202;SDS011;6666;51.626;7.530;2022-12-20T15:13:20;6.07;;;3.53;;
13202;SDS011;6666;51.626;7.530;2022-12-20T15:15:51;5.82;;;2.75;;
13202;SDS011;6666;51.626;7.530;2022-12-20T15:18:20;5.10;;;2.58;;
13202;SDS011;6666;51.626;7.530;2022-12-20T15:20:49;8.75;;;3.20;;
13202;SDS011;6666;51.626;7.530;2022-12-20T15:23:27;7.43;;;3.10;;
13202;SDS011;6666;51.626;7.530;2022-12-20T15:25:57;6.28;;;3.20;;
13202;SDS011;6666;51.626;7.530;2022-12-20T15:28:25;7.18;;;2.80;;
13202;SDS011;6666;51.626;7.530;2022-12-20T15:30:53;5.38;;;2.78;;
13202;SDS011;6666;51.626;7.530;2022-12-20T15:33:23;4.20;;;2.90;;
13202;SDS011;6666;51.626;7.530;2022-12-20T15:35:53;4.70;;;2.58;;
13202;SDS011;6666;51.626;7.530;2022-12-20T15:38:22;5.18;;;2.80;;
13202;SDS011;6666;51.626;7.530;2022-12-20T15:41:16;5.15;;;2.55;;
13202;SDS011;6666;51.626;7.530;2022-12-20T15:43:46;5.18;;;2.60;;
13202;SDS011;6666;51.626;7.530;2022-12-20T15:46:18;6.23;;;2.80;;
13202;SDS011;6666;51.626;7.530;2022-12-20T15:48:46;6.65;;;2.47;;
13202;SDS011;6666;51.626;7.530;2022-12-20T15:51:15;4.50;;;2.50;;
13202;SDS011;6666;51.626;7.530;2022-12-20T15:53:49;4.95;;;2.40;;
13202;SDS011;6666;51.626;7.530;2022-12-20T15:56:20;6.72;;;2.78;;
13202;SDS011;6666;51.626;7.530;2022-12-20T15:58:51;6.13;;;2.50;;
13202;SDS011;6666;51.626;7.530;2022-12-20T16:01:20;8.50;;;2.90;;
13202;SDS011;6666;51.626;7.530;2022-12-20T16:03:51;5.53;;;2.88;;
13202;SDS011;6666;51.626;7.530;2022-12-20T16:06:19;6.60;;;2.80;;
13202;SDS011;6666;51.626;7.530;2022-12-20T16:08:48;6.60;;;3.00;;
13202;SDS011;6666;51.626;7.530;2022-12-20T16:11:20;7.47;;;3.47;;
13202;SDS011;6666;51.626;7.530;2022-12-20T16:13:49;4.67;;;3.10;;
13202;SDS011;6666;51.626;7.530;2022-12-20T16:16:19;5.18;;;2.67;;
13202;SDS011;6666;51.626;7.530;2022-12-20T16:18:48;4.85;;;3.20;;
13202;SDS011;6666;51.626;7.530;2022-12-20T16:21:19;5.30;;;2.80;;